Rhapsody Of The Seas — C6UA2 — position and weather

sailwx.info

Track history (hours):
 
Tides and Currents Weather Stations Pressure Air Temp Water Temp Dewpoint Dewpoint Depression Visibility Wind Speed Wind Dir Waves Ship Positions

Rhapsody Of The Seas

Last reported at 2017-Aug-19 20:32 UTC. Time now 2017-Aug-20 15:37 UTC.
Position N 44°33' E 013°37'.

Type: Passenger vessel. MMSI: 311805000.

Date/timePositionNaut miles runAvg speedWind from/ knotsBaromVisibWave heightAir tempDewpointWater temp
2017-Aug-19 20:32N 44°33' E 013°37'222.4
2017-Aug-19 20:26N 44°35' E 013°35'1022.4
2017-Aug-19 20:01N 44°42' E 013°27'1121.6
2017-Aug-19 19:30N 44°52' E 013°18'1020.9
2017-Aug-19 19:01N 44°60' E 013°10'1121.4
2017-Aug-19 18:30N 45°08' E 012°59'1019.6
2017-Aug-19 18:00N 45°13' E 012°48'1019.7
2017-Aug-19 17:31N 45°19' E 012°37'917.0
2017-Aug-19 17:00N 45°25' E 012°27'4 7.2
2017-Aug-19 16:31N 45°25' E 012°22'3 5.3
2017-Aug-19 16:01N 45°26' E 012°19'1 1.0
2017-Aug-19 15:28N 45°26' E 012°18'0 0.0
2017-Aug-19 14:58N 45°26' E 012°18'0 0.0
2017-Aug-19 13:58N 45°26' E 012°18'0 0.0
2017-Aug-19 13:28N 45°26' E 012°18'0 0.0
2017-Aug-19 12:58N 45°26' E 012°18'0 0.0
2017-Aug-19 12:28N 45°26' E 012°18'0 0.0
2017-Aug-19 11:58N 45°26' E 012°18'0 0.0
2017-Aug-19 11:28N 45°26' E 012°18'0 0.0
2017-Aug-19 10:58N 45°26' E 012°18'0 0.0
2017-Aug-19 10:28N 45°26' E 012°18'0 0.0
2017-Aug-19 09:58N 45°26' E 012°18'0 0.0
2017-Aug-19 09:28N 45°26' E 012°18'0 0.0
2017-Aug-19 08:58N 45°26' E 012°18'0 0.0
2017-Aug-19 08:28N 45°26' E 012°18'0 0.0
2017-Aug-19 07:58N 45°26' E 012°18'0 0.0
2017-Aug-19 07:29N 45°26' E 012°18'0 0.0
2017-Aug-19 06:58N 45°26' E 012°18'0 0.0
2017-Aug-19 06:28N 45°26' E 012°18'0 0.0
2017-Aug-19 05:58N 45°26' E 012°18'0 0.0
2017-Aug-19 05:28N 45°26' E 012°18'0 0.0
2017-Aug-19 05:00N 45°26' E 012°18'0 0.0
2017-Aug-19 04:30N 45°26' E 012°18'1 1.2
2017-Aug-19 04:00N 45°26' E 012°19'3 5.3
2017-Aug-19 03:30N 45°26' E 012°23'4 8.2
2017-Aug-19 03:00N 45°24' E 012°28'815.1
2017-Aug-19 02:30N 45°20' E 012°37'815.5
2017-Aug-19 02:00N 45°14' E 012°45'815.4
2017-Aug-19 01:30N 45°10' E 012°54'816.0
2017-Aug-19 01:00N 45°06' E 013°03'816.0
2017-Aug-19 00:30N 45°01' E 013°12'816.0
2017-Aug-19 00:00N 44°56' E 013°21'816.3
2017-Aug-18 23:30N 44°49' E 013°28'816.2
2017-Aug-18 23:00N 44°42' E 013°34'816.8
2017-Aug-18 22:30N 44°35' E 013°40'917.5
2017-Aug-18 22:00N 44°28' E 013°47'917.4
2017-Aug-18 21:30N 44°21' E 013°54'917.6
2017-Aug-18 21:00N 44°14' E 014°01'917.7
2017-Aug-18 20:30N 44°07' E 014°09'917.6
2017-Aug-18 20:00N 43°60' E 014°16'33017.7
2017-Aug-18 01:18N 39°53' E 019°11'517.3
2017-Aug-18 01:00N 39°48' E 019°14'917.2
2017-Aug-18 00:30N 39°40' E 019°18'917.3
2017-Aug-18 00:00N 39°32' E 019°23'917.3
2017-Aug-17 23:30N 39°25' E 019°29'917.4
2017-Aug-17 23:00N 39°18' E 019°36'917.5
2017-Aug-17 22:31N 39°11' E 019°43'4417.3
2017-Aug-17 19:59N 38°39' E 020°21'817.4
2017-Aug-17 19:30N 38°33' E 020°28'116 7.0
2017-Aug-17 02:49N 36°47' E 021°29'515.7
2017-Aug-17 02:30N 36°43' E 021°31'714.7
2017-Aug-17 02:00N 36°37' E 021°37'11112.5
2017-Aug-16 17:06N 37°23' E 023°44'217.2
2017-Aug-16 17:00N 37°25' E 023°44'817.0
2017-Aug-16 16:30N 37°33' E 023°43'816.7
2017-Aug-16 16:00N 37°42' E 023°41'816.9
2017-Aug-16 15:30N 37°49' E 023°37'713.9
2017-Aug-16 15:01N 37°56' E 023°37'0 0.5
2017-Aug-16 14:29N 37°56' E 023°37'0 0.0
2017-Aug-16 13:59N 37°56' E 023°37'0 0.0
2017-Aug-16 13:29N 37°56' E 023°37'0 0.0
2017-Aug-16 12:59N 37°56' E 023°37'0 0.0
2017-Aug-16 12:29N 37°56' E 023°37'0 0.0
2017-Aug-16 11:59N 37°56' E 023°37'0 0.0
2017-Aug-16 11:29N 37°56' E 023°37'0 0.0
2017-Aug-16 10:59N 37°56' E 023°37'0 0.0
2017-Aug-16 10:29N 37°56' E 023°37'0 0.0
2017-Aug-16 09:59N 37°56' E 023°37'0 0.0
2017-Aug-16 09:29N 37°56' E 023°37'0 0.0
2017-Aug-16 08:59N 37°56' E 023°37'0 0.0
2017-Aug-16 08:29N 37°56' E 023°37'0 0.0
2017-Aug-16 07:59N 37°56' E 023°37'0 0.0
2017-Aug-16 07:29N 37°56' E 023°37'0 0.0
2017-Aug-16 06:56N 37°56' E 023°37'0 0.0
2017-Aug-16 06:29N 37°56' E 023°37'0 0.0
2017-Aug-16 05:59N 37°56' E 023°37'0 0.0
2017-Aug-16 05:29N 37°56' E 023°37'0 0.0
2017-Aug-16 04:56N 37°56' E 023°37'0 0.0
2017-Aug-16 04:29N 37°56' E 023°37'0 0.0
2017-Aug-16 03:59N 37°56' E 023°37'0 0.0
2017-Aug-16 03:29N 37°56' E 023°37'0 0.0
2017-Aug-16 02:56N 37°56' E 023°37'0 0.0
2017-Aug-16 02:29N 37°56' E 023°37'0 0.3
2017-Aug-16 02:00N 37°56' E 023°37'2 3.8
2017-Aug-16 01:30N 37°55' E 023°37'815.1
2017-Aug-16 01:01N 37°48' E 023°41'816.4
2017-Aug-16 00:31N 37°40' E 023°45'816.2
2017-Aug-16 00:00N 37°32' E 023°46'816.6
2017-Aug-15 23:30N 37°24' E 023°45'30612.2
2017-Aug-14 22:19N 40°48' E 018°51'329 6.5
2017-Aug-12 19:30N 44°38' E 013°32'1121.4
2017-Aug-12 19:00N 44°47' E 013°23'1121.3
2017-Aug-12 18:30N 44°55' E 013°14'1020.9
2017-Aug-12 18:00N 45°03' E 013°05'1020.5
2017-Aug-12 17:30N 45°10' E 012°54'1020.6
2017-Aug-12 17:00N 45°16' E 012°42'919.0
2017-Aug-12 16:31N 45°22' E 012°31'612.8
2017-Aug-12 16:00N 45°26' E 012°24'3 5.6
2017-Aug-12 15:31N 45°26' E 012°20'1 2.5
2017-Aug-12 15:00N 45°26' E 012°19'0 0.0
2017-Aug-12 14:30N 45°26' E 012°19'0 0.0
2017-Aug-12 14:00N 45°26' E 012°19'0 0.0
2017-Aug-12 13:30N 45°26' E 012°19'0 0.0
2017-Aug-12 13:00N 45°26' E 012°19'0 0.0
2017-Aug-12 12:30N 45°26' E 012°19'0 0.0
2017-Aug-12 12:00N 45°26' E 012°19'0 0.0
2017-Aug-12 11:30N 45°26' E 012°19'0 0.0
2017-Aug-12 11:00N 45°26' E 012°19'0 0.0
2017-Aug-12 10:30N 45°26' E 012°19'0 0.0
2017-Aug-12 10:00N 45°26' E 012°19'0 0.0
2017-Aug-12 09:30N 45°26' E 012°19'0 0.0
2017-Aug-12 09:00N 45°26' E 012°19'0 0.0
2017-Aug-12 08:30N 45°26' E 012°19'0 0.0
2017-Aug-12 08:00N 45°26' E 012°19'0 0.0
2017-Aug-12 07:30N 45°26' E 012°19'0 0.0
2017-Aug-12 07:00N 45°26' E 012°19'0 0.0
2017-Aug-12 06:30N 45°26' E 012°19'0 0.0
2017-Aug-12 06:00N 45°26' E 012°19'0 0.0
2017-Aug-12 05:30N 45°26' E 012°19'0 0.0
2017-Aug-12 05:00N 45°26' E 012°19'0 0.2
2017-Aug-12 04:30N 45°26' E 012°19'2 3.1
2017-Aug-12 04:01N 45°26' E 012°21'3 5.7
2017-Aug-12 03:30N 45°26' E 012°25'611.8
2017-Aug-12 03:00N 45°23' E 012°32'815.6
2017-Aug-12 02:30N 45°17' E 012°40'815.3
2017-Aug-12 02:00N 45°12' E 012°49'815.6
2017-Aug-12 01:30N 45°08' E 012°58'815.6
2017-Aug-12 01:00N 45°05' E 013°08'816.6
2017-Aug-12 00:30N 44°60' E 013°17'815.9
2017-Aug-12 00:00N 44°53' E 013°24'816.0
2017-Aug-11 23:30N 44°47' E 013°30'815.8
2017-Aug-11 23:00N 44°40' E 013°36'815.9
2017-Aug-11 22:30N 44°34' E 013°42'815.9
2017-Aug-11 22:00N 44°27' E 013°48'815.8
2017-Aug-11 21:30N 44°20' E 013°54'28916.4
2017-Aug-11 03:54N 41°02' E 018°41'718.1
2017-Aug-11 03:30N 40°56' E 018°43'918.0
2017-Aug-11 03:00N 40°47' E 018°47'918.3
2017-Aug-11 02:30N 40°38' E 018°50'918.0
2017-Aug-11 02:01N 40°30' E 018°53'917.9
2017-Aug-11 01:30N 40°21' E 018°57'918.0
2017-Aug-11 01:00N 40°12' E 019°00'917.7
2017-Aug-11 00:30N 40°04' E 019°05'1817.4
2017-Aug-10 23:29N 39°48' E 019°14'1917.1
2017-Aug-10 22:21N 39°30' E 019°24'1517.1
2017-Aug-10 21:27N 39°16' E 019°32'1317.1
2017-Aug-10 20:41N 39°04' E 019°39'517.3
2017-Aug-10 20:25N 38°60' E 019°41'817.3
2017-Aug-10 19:58N 38°53' E 019°45'3017.4
2017-Aug-10 18:15N 38°25' E 020°00'916.8
2017-Aug-10 17:42N 38°17' E 020°05'317.1
2017-Aug-10 17:30N 38°14' E 020°08'110 5.4
2017-Aug-09 21:00N 36°42' E 021°24'   090 / 121012.010.8 27.424.525.0
Track history (hours):
 
Tides and Currents Weather Stations Pressure Air Temp Water Temp Dewpoint Dewpoint Depression Visibility Wind Speed Wind Dir Waves Ship Positions

Rhapsody Of The Seas

Last reported at 2017-Aug-19 20:32 UTC. Time now 2017-Aug-20 15:37 UTC.
Position N 44°33' E 013°37'.

Type: Passenger vessel. MMSI: 311805000.

Date/timePositionNaut miles runAvg speedWind from/ knotsBaromVisibWave heightAir tempDewpointWater temp
2017-Aug-19 20:32N 44°33' E 013°37'222.4
2017-Aug-19 20:26N 44°35' E 013°35'1022.4
2017-Aug-19 20:01N 44°42' E 013°27'1121.6
2017-Aug-19 19:30N 44°52' E 013°18'1020.9
2017-Aug-19 19:01N 44°60' E 013°10'1121.4
2017-Aug-19 18:30N 45°08' E 012°59'1019.6
2017-Aug-19 18:00N 45°13' E 012°48'1019.7
2017-Aug-19 17:31N 45°19' E 012°37'917.0
2017-Aug-19 17:00N 45°25' E 012°27'4 7.2
2017-Aug-19 16:31N 45°25' E 012°22'3 5.3
2017-Aug-19 16:01N 45°26' E 012°19'1 1.0
2017-Aug-19 15:28N 45°26' E 012°18'0 0.0
2017-Aug-19 14:58N 45°26' E 012°18'0 0.0
2017-Aug-19 13:58N 45°26' E 012°18'0 0.0
2017-Aug-19 13:28N 45°26' E 012°18'0 0.0
2017-Aug-19 12:58N 45°26' E 012°18'0 0.0
2017-Aug-19 12:28N 45°26' E 012°18'0 0.0
2017-Aug-19 11:58N 45°26' E 012°18'0 0.0
2017-Aug-19 11:28N 45°26' E 012°18'0 0.0
2017-Aug-19 10:58N 45°26' E 012°18'0 0.0
2017-Aug-19 10:28N 45°26' E 012°18'0 0.0
2017-Aug-19 09:58N 45°26' E 012°18'0 0.0
2017-Aug-19 09:28N 45°26' E 012°18'0 0.0
2017-Aug-19 08:58N 45°26' E 012°18'0 0.0
2017-Aug-19 08:28N 45°26' E 012°18'0 0.0
2017-Aug-19 07:58N 45°26' E 012°18'0 0.0
2017-Aug-19 07:29N 45°26' E 012°18'0 0.0
2017-Aug-19 06:58N 45°26' E 012°18'0 0.0
2017-Aug-19 06:28N 45°26' E 012°18'0 0.0
2017-Aug-19 05:58N 45°26' E 012°18'0 0.0
2017-Aug-19 05:28N 45°26' E 012°18'0 0.0
2017-Aug-19 05:00N 45°26' E 012°18'0 0.0
2017-Aug-19 04:30N 45°26' E 012°18'1 1.2
2017-Aug-19 04:00N 45°26' E 012°19'3 5.3
2017-Aug-19 03:30N 45°26' E 012°23'4 8.2
2017-Aug-19 03:00N 45°24' E 012°28'815.1
2017-Aug-19 02:30N 45°20' E 012°37'815.5
2017-Aug-19 02:00N 45°14' E 012°45'815.4
2017-Aug-19 01:30N 45°10' E 012°54'816.0
2017-Aug-19 01:00N 45°06' E 013°03'816.0
2017-Aug-19 00:30N 45°01' E 013°12'816.0
2017-Aug-19 00:00N 44°56' E 013°21'816.3
2017-Aug-18 23:30N 44°49' E 013°28'816.2
2017-Aug-18 23:00N 44°42' E 013°34'816.8
2017-Aug-18 22:30N 44°35' E 013°40'917.5
2017-Aug-18 22:00N 44°28' E 013°47'917.4
2017-Aug-18 21:30N 44°21' E 013°54'917.6
2017-Aug-18 21:00N 44°14' E 014°01'917.7
2017-Aug-18 20:30N 44°07' E 014°09'917.6
2017-Aug-18 20:00N 43°60' E 014°16'33017.7
2017-Aug-18 01:18N 39°53' E 019°11'517.3
2017-Aug-18 01:00N 39°48' E 019°14'917.2
2017-Aug-18 00:30N 39°40' E 019°18'917.3
2017-Aug-18 00:00N 39°32' E 019°23'917.3
2017-Aug-17 23:30N 39°25' E 019°29'917.4
2017-Aug-17 23:00N 39°18' E 019°36'917.5
2017-Aug-17 22:31N 39°11' E 019°43'4417.3
2017-Aug-17 19:59N 38°39' E 020°21'817.4
2017-Aug-17 19:30N 38°33' E 020°28'116 7.0
2017-Aug-17 02:49N 36°47' E 021°29'515.7
2017-Aug-17 02:30N 36°43' E 021°31'714.7
2017-Aug-17 02:00N 36°37' E 021°37'11112.5
2017-Aug-16 17:06N 37°23' E 023°44'217.2
2017-Aug-16 17:00N 37°25' E 023°44'817.0
2017-Aug-16 16:30N 37°33' E 023°43'816.7
2017-Aug-16 16:00N 37°42' E 023°41'816.9
2017-Aug-16 15:30N 37°49' E 023°37'713.9
2017-Aug-16 15:01N 37°56' E 023°37'0 0.5
2017-Aug-16 14:29N 37°56' E 023°37'0 0.0
2017-Aug-16 13:59N 37°56' E 023°37'0 0.0
2017-Aug-16 13:29N 37°56' E 023°37'0 0.0
2017-Aug-16 12:59N 37°56' E 023°37'0 0.0
2017-Aug-16 12:29N 37°56' E 023°37'0 0.0
2017-Aug-16 11:59N 37°56' E 023°37'0 0.0
2017-Aug-16 11:29N 37°56' E 023°37'0 0.0
2017-Aug-16 10:59N 37°56' E 023°37'0 0.0
2017-Aug-16 10:29N 37°56' E 023°37'0 0.0
2017-Aug-16 09:59N 37°56' E 023°37'0 0.0
2017-Aug-16 09:29N 37°56' E 023°37'0 0.0
2017-Aug-16 08:59N 37°56' E 023°37'0 0.0
2017-Aug-16 08:29N 37°56' E 023°37'0 0.0
2017-Aug-16 07:59N 37°56' E 023°37'0 0.0
2017-Aug-16 07:29N 37°56' E 023°37'0 0.0
2017-Aug-16 06:56N 37°56' E 023°37'0 0.0
2017-Aug-16 06:29N 37°56' E 023°37'0 0.0
2017-Aug-16 05:59N 37°56' E 023°37'0 0.0
2017-Aug-16 05:29N 37°56' E 023°37'0 0.0
2017-Aug-16 04:56N 37°56' E 023°37'0 0.0
2017-Aug-16 04:29N 37°56' E 023°37'0 0.0
2017-Aug-16 03:59N 37°56' E 023°37'0 0.0
2017-Aug-16 03:29N 37°56' E 023°37'0 0.0
2017-Aug-16 02:56N 37°56' E 023°37'0 0.0
2017-Aug-16 02:29N 37°56' E 023°37'0 0.3
2017-Aug-16 02:00N 37°56' E 023°37'2 3.8
2017-Aug-16 01:30N 37°55' E 023°37'815.1
2017-Aug-16 01:01N 37°48' E 023°41'816.4
2017-Aug-16 00:31N 37°40' E 023°45'816.2
2017-Aug-16 00:00N 37°32' E 023°46'816.6
2017-Aug-15 23:30N 37°24' E 023°45'30612.2
2017-Aug-14 22:19N 40°48' E 018°51'329 6.5
2017-Aug-12 19:30N 44°38' E 013°32'1121.4
2017-Aug-12 19:00N 44°47' E 013°23'1121.3
2017-Aug-12 18:30N 44°55' E 013°14'1020.9
2017-Aug-12 18:00N 45°03' E 013°05'1020.5
2017-Aug-12 17:30N 45°10' E 012°54'1020.6
2017-Aug-12 17:00N 45°16' E 012°42'919.0
2017-Aug-12 16:31N 45°22' E 012°31'612.8
2017-Aug-12 16:00N 45°26' E 012°24'3 5.6
2017-Aug-12 15:31N 45°26' E 012°20'1 2.5
2017-Aug-12 15:00N 45°26' E 012°19'0 0.0
2017-Aug-12 14:30N 45°26' E 012°19'0 0.0
2017-Aug-12 14:00N 45°26' E 012°19'0 0.0
2017-Aug-12 13:30N 45°26' E 012°19'0 0.0
2017-Aug-12 13:00N 45°26' E 012°19'0 0.0
2017-Aug-12 12:30N 45°26' E 012°19'0 0.0
2017-Aug-12 12:00N 45°26' E 012°19'0 0.0
2017-Aug-12 11:30N 45°26' E 012°19'0 0.0
2017-Aug-12 11:00N 45°26' E 012°19'0 0.0
2017-Aug-12 10:30N 45°26' E 012°19'0 0.0
2017-Aug-12 10:00N 45°26' E 012°19'0 0.0
2017-Aug-12 09:30N 45°26' E 012°19'0 0.0
2017-Aug-12 09:00N 45°26' E 012°19'0 0.0
2017-Aug-12 08:30N 45°26' E 012°19'0 0.0
2017-Aug-12 08:00N 45°26' E 012°19'0 0.0
2017-Aug-12 07:30N 45°26' E 012°19'0 0.0
2017-Aug-12 07:00N 45°26' E 012°19'0 0.0
2017-Aug-12 06:30N 45°26' E 012°19'0 0.0
2017-Aug-12 06:00N 45°26' E 012°19'0 0.0
2017-Aug-12 05:30N 45°26' E 012°19'0 0.0
2017-Aug-12 05:00N 45°26' E 012°19'0 0.2
2017-Aug-12 04:30N 45°26' E 012°19'2 3.1
2017-Aug-12 04:01N 45°26' E 012°21'3 5.7
2017-Aug-12 03:30N 45°26' E 012°25'611.8
2017-Aug-12 03:00N 45°23' E 012°32'815.6
2017-Aug-12 02:30N 45°17' E 012°40'815.3
2017-Aug-12 02:00N 45°12' E 012°49'815.6
2017-Aug-12 01:30N 45°08' E 012°58'815.6
2017-Aug-12 01:00N 45°05' E 013°08'816.6
2017-Aug-12 00:30N 44°60' E 013°17'815.9
2017-Aug-12 00:00N 44°53' E 013°24'816.0
2017-Aug-11 23:30N 44°47' E 013°30'815.8
2017-Aug-11 23:00N 44°40' E 013°36'815.9
2017-Aug-11 22:30N 44°34' E 013°42'815.9
2017-Aug-11 22:00N 44°27' E 013°48'815.8
2017-Aug-11 21:30N 44°20' E 013°54'28916.4
2017-Aug-11 03:54N 41°02' E 018°41'718.1
2017-Aug-11 03:30N 40°56' E 018°43'918.0
2017-Aug-11 03:00N 40°47' E 018°47'918.3
2017-Aug-11 02:30N 40°38' E 018°50'918.0
2017-Aug-11 02:01N 40°30' E 018°53'917.9
2017-Aug-11 01:30N 40°21' E 018°57'918.0
2017-Aug-11 01:00N 40°12' E 019°00'917.7
2017-Aug-11 00:30N 40°04' E 019°05'1817.4
2017-Aug-10 23:29N 39°48' E 019°14'1917.1
2017-Aug-10 22:21N 39°30' E 019°24'1517.1
2017-Aug-10 21:27N 39°16' E 019°32'1317.1
2017-Aug-10 20:41N 39°04' E 019°39'517.3
2017-Aug-10 20:25N 38°60' E 019°41'817.3
2017-Aug-10 19:58N 38°53' E 019°45'3017.4
2017-Aug-10 18:15N 38°25' E 020°00'916.8
2017-Aug-10 17:42N 38°17' E 020°05'317.1
2017-Aug-10 17:30N 38°14' E 020°08'110 5.4
2017-Aug-09 21:00N 36°42' E 021°24'   090 / 121012.010.8 27.424.525.0

Dump ship's entire track history